createdAt,value
2023-03-20T00:02:23.687Z,19.83
2023-03-20T00:04:51.827Z,19.07
2023-03-20T00:07:19.038Z,19.60
2023-03-20T00:09:46.419Z,19.00
2023-03-20T00:12:24.920Z,19.60
2023-03-20T00:14:52.411Z,21.83
2023-03-20T00:17:21.374Z,19.57
2023-03-20T00:19:49.259Z,19.10
2023-03-20T00:22:16.359Z,20.00
2023-03-20T00:24:43.291Z,19.77
2023-03-20T00:27:15.969Z,22.00
2023-03-20T00:29:44.145Z,17.57
2023-03-20T00:32:13.684Z,18.10
2023-03-20T00:34:41.145Z,20.73
2023-03-20T00:37:12.067Z,19.00
2023-03-20T00:39:39.285Z,19.10
2023-03-20T00:42:08.207Z,19.47
2023-03-20T00:44:54.158Z,18.87
2023-03-20T00:47:25.257Z,21.23
2023-03-20T00:49:56.183Z,18.33
2023-03-20T00:52:24.774Z,18.60
2023-03-20T00:54:52.007Z,19.03
2023-03-20T00:57:30.683Z,20.17
2023-03-20T01:00:05.433Z,18.73
2023-03-20T01:02:33.009Z,18.90
2023-03-20T01:05:00.979Z,19.67
2023-03-20T01:07:28.046Z,19.17
2023-03-20T01:09:55.029Z,19.87
2023-03-20T01:12:22.823Z,19.67
2023-03-20T01:14:57.677Z,19.60
2023-03-20T01:17:27.982Z,18.67
2023-03-20T01:19:55.610Z,18.13
2023-03-20T01:22:22.581Z,19.23
2023-03-20T01:24:49.520Z,20.47
2023-03-20T01:27:19.810Z,17.87
2023-03-20T01:29:47.177Z,19.63
2023-03-20T01:32:18.355Z,19.43
2023-03-20T01:34:45.756Z,19.30
2023-03-20T01:37:26.867Z,17.60
2023-03-20T01:39:54.307Z,19.27
2023-03-20T01:42:21.318Z,17.97
2023-03-20T01:44:48.765Z,18.03
2023-03-20T01:47:22.215Z,18.33
2023-03-20T01:50:30.768Z,19.17
2023-03-20T01:53:22.728Z,18.57
2023-03-20T01:55:55.088Z,17.57
2023-03-20T01:58:31.361Z,19.90
2023-03-20T02:01:00.369Z,19.40
2023-03-20T02:03:27.650Z,16.60
2023-03-20T02:05:57.259Z,18.63
2023-03-20T02:08:33.040Z,18.47
2023-03-20T02:11:01.650Z,18.07
2023-03-20T02:13:31.770Z,18.63
2023-03-20T02:16:13.609Z,17.70
2023-03-20T02:18:44.188Z,17.70
2023-03-20T02:21:54.698Z,18.20
2023-03-20T02:25:15.592Z,17.13
2023-03-20T02:28:10.999Z,18.10
2023-03-20T02:31:21.828Z,17.47
2023-03-20T02:34:19.496Z,17.93
2023-03-20T02:37:24.138Z,17.80
2023-03-20T02:40:23.246Z,17.20
2023-03-20T02:43:02.365Z,16.30
2023-03-20T02:45:48.873Z,18.70
2023-03-20T02:48:44.568Z,16.67
2023-03-20T02:51:32.438Z,17.17
2023-03-20T02:54:28.977Z,18.00
2023-03-20T02:57:08.698Z,16.80
2023-03-20T02:59:50.747Z,16.47
2023-03-20T03:02:32.031Z,17.17
2023-03-20T03:05:08.298Z,16.00
2023-03-20T03:07:37.401Z,18.53
2023-03-20T03:10:38.636Z,17.33
2023-03-20T03:13:12.938Z,17.17
2023-03-20T03:15:47.590Z,17.70
2023-03-20T03:18:21.158Z,17.03
2023-03-20T03:20:56.028Z,17.70
2023-03-20T03:23:43.702Z,18.20
2023-03-20T03:26:19.049Z,16.97
2023-03-20T03:28:56.969Z,17.00
2023-03-20T03:31:25.628Z,18.43
2023-03-20T03:33:55.879Z,18.50
2023-03-20T03:36:35.929Z,17.03
2023-03-20T03:39:48.366Z,16.47
2023-03-20T03:42:40.828Z,16.30
2023-03-20T03:45:19.396Z,17.93
2023-03-20T03:48:02.617Z,16.27
2023-03-20T03:50:48.867Z,15.87
2023-03-20T03:53:25.886Z,16.80
2023-03-20T03:56:00.806Z,17.50
2023-03-20T03:58:42.588Z,17.87
2023-03-20T04:01:13.234Z,16.57
2023-03-20T04:03:49.791Z,16.33
2023-03-20T04:06:17.737Z,16.57
2023-03-20T04:08:45.357Z,16.77
2023-03-20T04:11:20.065Z,16.93
2023-03-20T04:13:50.053Z,16.73
2023-03-20T04:16:20.682Z,17.17
2023-03-20T04:18:47.971Z,16.40
2023-03-20T04:21:16.362Z,17.73
2023-03-20T04:23:43.911Z,17.10
2023-03-20T04:26:11.444Z,16.83
2023-03-20T04:28:38.602Z,18.20
2023-03-20T04:31:06.194Z,17.13
2023-03-20T04:33:33.280Z,17.37
2023-03-20T04:36:00.791Z,17.30
2023-03-20T04:38:27.798Z,18.20
2023-03-20T04:40:54.842Z,18.33
2023-03-20T04:43:21.848Z,18.20
2023-03-20T04:45:49.138Z,18.67
2023-03-20T04:48:16.214Z,19.63
2023-03-20T04:50:46.721Z,18.17
2023-03-20T04:53:13.952Z,19.43
2023-03-20T04:55:41.428Z,18.45
2023-03-20T04:58:08.452Z,19.60
2023-03-20T05:00:35.726Z,19.30
2023-03-20T05:03:02.992Z,19.30
2023-03-20T05:05:30.213Z,18.53
2023-03-20T05:07:57.285Z,20.43
2023-03-20T05:10:24.251Z,18.33
2023-03-20T05:12:51.232Z,19.50
2023-03-20T05:15:18.289Z,18.73
2023-03-20T05:17:45.410Z,20.33
2023-03-20T05:20:12.610Z,19.90
2023-03-20T05:22:39.750Z,19.30
2023-03-20T05:25:07.220Z,19.03
2023-03-20T05:27:34.259Z,18.53
2023-03-20T05:30:01.298Z,19.30
2023-03-20T05:32:28.349Z,19.40
2023-03-20T05:34:55.877Z,20.87
2023-03-20T05:37:22.895Z,20.60
2023-03-20T05:39:49.830Z,19.97
2023-03-20T05:42:16.765Z,21.10
2023-03-20T05:44:43.860Z,18.97
2023-03-20T05:47:11.041Z,20.87
2023-03-20T05:49:37.990Z,19.70
2023-03-20T05:52:05.087Z,19.00
2023-03-20T05:54:32.156Z,21.23
2023-03-20T05:56:59.373Z,19.73
2023-03-20T05:59:26.450Z,18.57
2023-03-20T06:01:53.392Z,20.27
2023-03-20T06:04:20.350Z,20.83
2023-03-20T06:06:47.220Z,20.40
2023-03-20T06:09:14.211Z,19.43
2023-03-20T06:11:41.195Z,20.70
2023-03-20T06:14:08.311Z,20.63
2023-03-20T06:16:35.362Z,19.73
2023-03-20T06:19:02.472Z,21.10
2023-03-20T06:21:29.549Z,22.53
2023-03-20T06:23:58.229Z,20.53
2023-03-20T06:26:25.788Z,21.30
2023-03-20T06:28:52.847Z,21.63
2023-03-20T06:31:19.891Z,20.40
2023-03-20T06:33:46.870Z,19.80
2023-03-20T06:36:13.876Z,20.10
2023-03-20T06:38:40.836Z,20.67
2023-03-20T06:41:07.890Z,20.30
2023-03-20T06:43:34.898Z,20.40
2023-03-20T06:46:01.825Z,20.30
2023-03-20T06:48:28.889Z,19.30
2023-03-20T06:50:55.869Z,19.77
2023-03-20T06:53:23.273Z,18.70
2023-03-20T06:55:51.896Z,16.93
2023-03-20T06:58:19.544Z,16.37
2023-03-20T07:00:46.898Z,17.70
2023-03-20T07:03:13.978Z,17.27
2023-03-20T07:05:41.083Z,17.73
2023-03-20T07:08:08.114Z,16.80
2023-03-20T07:10:36.361Z,17.00
2023-03-20T07:13:04.664Z,16.33
2023-03-20T07:15:32.619Z,14.90
2023-03-20T07:17:59.630Z,16.90
2023-03-20T07:20:27.099Z,15.20
2023-03-20T07:22:55.576Z,16.93
2023-03-20T07:25:35.406Z,16.43
2023-03-20T07:28:06.718Z,15.83
2023-03-20T07:30:33.744Z,15.27
2023-03-20T07:33:01.020Z,14.10
2023-03-20T07:35:28.153Z,14.63
2023-03-20T07:37:57.982Z,14.87
2023-03-20T07:40:25.115Z,14.70
2023-03-20T07:42:52.816Z,15.10
2023-03-20T07:45:19.811Z,13.90
2023-03-20T07:47:48.480Z,14.07
2023-03-20T07:50:16.612Z,12.93
2023-03-20T07:52:51.530Z,11.83
2023-03-20T07:55:18.825Z,11.63
2023-03-20T07:57:45.969Z,12.40
2023-03-20T08:00:15.892Z,13.30
2023-03-20T08:02:43.249Z,13.00
2023-03-20T08:05:11.147Z,12.83
2023-03-20T08:07:38.128Z,13.43
2023-03-20T08:10:05.758Z,13.63
2023-03-20T08:12:32.756Z,12.70
2023-03-20T08:14:59.824Z,12.63
2023-03-20T08:17:26.798Z,13.00
2023-03-20T08:19:53.710Z,14.03
2023-03-20T08:22:21.012Z,14.33
2023-03-20T08:24:48.249Z,14.93
2023-03-20T08:27:15.382Z,13.20
2023-03-20T08:29:42.270Z,13.03
2023-03-20T08:32:09.392Z,13.30
2023-03-20T08:34:36.490Z,12.63
2023-03-20T08:37:05.316Z,12.13
2023-03-20T08:39:33.658Z,13.30
2023-03-20T08:42:01.349Z,12.10
2023-03-20T08:44:28.815Z,11.40
2023-03-20T08:46:56.674Z,11.00
2023-03-20T08:49:24.251Z,9.40
2023-03-20T08:51:51.368Z,9.37
2023-03-20T08:54:18.643Z,11.33
2023-03-20T08:56:46.556Z,10.17
2023-03-20T08:59:13.823Z,9.80
2023-03-20T09:01:49.317Z,9.50
2023-03-20T09:04:18.205Z,10.50
2023-03-20T09:06:45.278Z,11.77
2023-03-20T09:09:16.026Z,10.27
2023-03-20T09:11:43.294Z,10.00
2023-03-20T09:14:10.362Z,9.73
2023-03-20T09:16:38.021Z,10.53
2023-03-20T09:19:05.867Z,10.27
2023-03-20T09:21:32.780Z,9.90
2023-03-20T09:23:59.820Z,10.30
2023-03-20T09:26:26.950Z,10.10
2023-03-20T09:28:53.947Z,9.20
2023-03-20T09:31:21.058Z,10.23
2023-03-20T09:33:48.068Z,9.73
2023-03-20T09:36:16.615Z,9.07
2023-03-20T09:38:43.878Z,9.83
2023-03-20T09:41:22.145Z,9.70
2023-03-20T09:44:00.691Z,9.70
2023-03-20T09:47:19.901Z,9.10
2023-03-20T09:50:02.583Z,10.40
2023-03-20T09:52:43.731Z,8.77
2023-03-20T09:55:19.042Z,8.37
2023-03-20T09:57:57.152Z,8.80
2023-03-20T10:00:31.755Z,7.50
2023-03-20T10:03:16.169Z,8.20
2023-03-20T10:05:54.953Z,8.43
2023-03-20T10:08:33.286Z,7.00
2023-03-20T10:11:16.611Z,7.50
2023-03-20T10:14:04.181Z,6.83
2023-03-20T10:17:12.125Z,6.27
2023-03-20T10:20:00.037Z,6.20
2023-03-20T10:22:38.722Z,6.63
2023-03-20T10:25:29.831Z,7.20
2023-03-20T10:28:00.511Z,6.67
2023-03-20T10:30:44.928Z,6.10
2023-03-20T10:33:14.529Z,6.87
2023-03-20T10:35:58.345Z,6.33
2023-03-20T10:39:06.887Z,6.10
2023-03-20T10:41:38.413Z,6.83
2023-03-20T10:44:17.257Z,6.33
2023-03-20T10:46:51.571Z,6.50
2023-03-20T10:49:40.698Z,6.90
2023-03-20T10:52:18.948Z,6.83
2023-03-20T10:54:54.935Z,7.33
2023-03-20T10:57:27.282Z,6.77
2023-03-20T10:59:58.960Z,6.53
2023-03-20T11:02:30.897Z,5.90
2023-03-20T11:05:02.388Z,6.00
2023-03-20T11:07:35.870Z,5.90
2023-03-20T11:10:05.657Z,5.60
2023-03-20T11:12:42.245Z,5.77
2023-03-20T11:15:37.817Z,5.80
2023-03-20T11:18:15.477Z,4.90
2023-03-20T11:20:52.223Z,5.77
2023-03-20T11:23:26.913Z,5.37
2023-03-20T11:26:05.395Z,5.00
2023-03-20T11:28:42.664Z,5.60
2023-03-20T11:31:35.704Z,5.50
2023-03-20T11:34:26.788Z,5.47
2023-03-20T11:37:09.183Z,5.50
2023-03-20T11:39:38.538Z,5.30
2023-03-20T11:42:26.700Z,5.00
2023-03-20T11:45:07.903Z,4.17
2023-03-20T11:47:36.466Z,5.07
2023-03-20T11:50:07.524Z,5.90
2023-03-20T11:52:39.417Z,4.97
2023-03-20T11:55:33.795Z,4.63
2023-03-20T11:58:05.277Z,5.00
2023-03-20T12:00:42.433Z,5.00
2023-03-20T12:04:11.770Z,4.80
2023-03-20T12:07:05.195Z,4.80
2023-03-20T12:09:38.267Z,5.77
2023-03-20T12:12:23.978Z,5.80
2023-03-20T12:14:55.126Z,6.70
2023-03-20T12:18:02.437Z,6.57
2023-03-20T12:20:41.766Z,5.30
2023-03-20T12:23:44.550Z,6.07
2023-03-20T12:26:20.940Z,5.63
2023-03-20T12:28:55.241Z,4.80
2023-03-20T12:31:54.751Z,5.60
2023-03-20T12:34:31.497Z,6.40
2023-03-20T12:36:58.787Z,5.67
2023-03-20T12:39:34.648Z,5.43
2023-03-20T12:42:46.387Z,6.87
2023-03-20T12:45:37.597Z,6.97
2023-03-20T12:48:52.691Z,6.20
2023-03-20T12:51:51.580Z,6.17
2023-03-20T12:55:01.894Z,5.77
2023-03-20T12:57:56.927Z,6.00
2023-03-20T13:00:32.680Z,8.00
2023-03-20T13:03:16.990Z,6.37
2023-03-20T13:06:01.084Z,6.47
2023-03-20T13:08:49.245Z,5.60
2023-03-20T13:12:00.072Z,6.63
2023-03-20T13:14:42.971Z,5.60
2023-03-20T13:17:33.214Z,6.90
2023-03-20T13:20:27.761Z,5.97
2023-03-20T13:23:06.491Z,6.43
2023-03-20T13:26:09.460Z,5.97
2023-03-20T13:28:58.132Z,5.90
2023-03-20T13:32:22.185Z,5.43
2023-03-20T13:38:39.001Z,5.57
2023-03-20T13:41:11.384Z,6.00
2023-03-20T13:43:46.451Z,5.57
2023-03-20T13:46:23.197Z,5.83
2023-03-20T13:48:53.428Z,6.50
2023-03-20T13:51:49.579Z,5.70
2023-03-20T13:54:40.148Z,6.43
2023-03-20T13:57:15.787Z,6.47
2023-03-20T13:59:48.580Z,6.83
2023-03-20T14:03:03.500Z,6.87
2023-03-20T14:05:40.943Z,6.80
2023-03-20T14:08:37.018Z,6.23
2023-03-20T14:11:36.827Z,6.90
2023-03-20T14:14:17.261Z,6.13
2023-03-20T14:16:44.728Z,8.17
2023-03-20T14:19:22.121Z,7.03
2023-03-20T14:21:54.566Z,7.10
2023-03-20T14:24:24.320Z,7.40
2023-03-20T14:27:00.145Z,6.00
2023-03-20T14:29:30.002Z,7.00
2023-03-20T14:32:14.164Z,4.97
2023-03-20T14:34:49.708Z,7.30
2023-03-20T14:38:03.852Z,7.43
2023-03-20T14:40:36.886Z,6.40
2023-03-20T14:43:26.175Z,7.20
2023-03-20T14:46:22.817Z,6.00
2023-03-20T14:48:54.947Z,6.50
2023-03-20T14:51:42.178Z,6.50
2023-03-20T14:54:30.796Z,6.43
2023-03-20T14:57:16.362Z,7.67
2023-03-20T14:59:43.602Z,6.20
2023-03-20T15:02:28.276Z,5.20
2023-03-20T15:04:55.923Z,5.30
2023-03-20T15:07:29.668Z,5.70
2023-03-20T15:10:03.118Z,6.27
2023-03-20T15:12:36.721Z,4.80
2023-03-20T15:15:08.587Z,4.50
2023-03-20T15:17:44.738Z,3.87
2023-03-20T15:20:29.512Z,4.70
2023-03-20T15:23:02.949Z,3.93
2023-03-20T15:25:34.527Z,2.97
2023-03-20T15:28:06.388Z,3.03
2023-03-20T15:30:38.281Z,2.47
2023-03-20T15:33:07.467Z,2.00
2023-03-20T15:35:34.763Z,2.30
2023-03-20T15:38:07.871Z,2.77
2023-03-20T15:40:50.604Z,2.97
2023-03-20T15:43:25.498Z,2.13
2023-03-20T15:46:14.323Z,2.73
2023-03-20T15:48:47.735Z,2.50
2023-03-20T15:51:15.003Z,2.70
2023-03-20T15:53:47.680Z,2.50
2023-03-20T15:56:19.900Z,1.80
2023-03-20T15:58:52.662Z,2.27
2023-03-20T16:01:23.543Z,1.90
2023-03-20T16:03:53.006Z,2.20
2023-03-20T16:06:22.509Z,1.80
2023-03-20T16:09:07.202Z,1.67
2023-03-20T16:11:42.220Z,2.00
2023-03-20T16:14:35.699Z,2.20
2023-03-20T16:17:05.303Z,2.33
2023-03-20T16:19:32.357Z,2.23
2023-03-20T16:22:20.476Z,2.27
2023-03-20T16:24:51.781Z,2.23
2023-03-20T16:27:52.155Z,2.37
2023-03-20T16:30:25.480Z,2.40
2023-03-20T16:33:16.689Z,2.63
2023-03-20T16:35:49.586Z,2.23
2023-03-20T16:38:26.743Z,2.00
2023-03-20T16:40:58.515Z,2.60
2023-03-20T16:43:32.321Z,5.23
2023-03-20T16:46:07.208Z,4.20
2023-03-20T16:48:38.206Z,2.77
2023-03-20T16:51:23.993Z,2.80
2023-03-20T16:53:57.499Z,2.33
2023-03-20T16:56:37.046Z,2.57
2023-03-20T16:59:18.346Z,2.50
2023-03-20T17:01:49.035Z,2.37
2023-03-20T17:04:28.661Z,2.90
2023-03-20T17:07:02.187Z,3.37
2023-03-20T17:09:31.950Z,2.40
2023-03-20T17:12:05.242Z,3.60
2023-03-20T17:14:32.955Z,3.67
2023-03-20T17:17:00.689Z,3.30
2023-03-20T17:19:27.812Z,4.30
2023-03-20T17:21:55.030Z,3.23
2023-03-20T17:24:22.252Z,3.33
2023-03-20T17:26:56.221Z,2.63
2023-03-20T17:29:23.286Z,3.90
2023-03-20T17:31:50.555Z,3.87
2023-03-20T17:34:17.556Z,3.87
2023-03-20T17:36:44.872Z,3.43
2023-03-20T17:39:19.609Z,4.20
2023-03-20T17:41:47.625Z,5.47
2023-03-20T17:44:14.600Z,4.77
2023-03-20T17:46:56.868Z,5.17
2023-03-20T17:49:27.782Z,5.77
2023-03-20T17:51:56.055Z,7.10
2023-03-20T17:54:23.181Z,6.70
2023-03-20T17:56:50.508Z,6.90
2023-03-20T17:59:17.441Z,7.40
2023-03-20T18:01:45.136Z,6.93
2023-03-20T18:04:14.051Z,7.03
2023-03-20T18:06:42.467Z,6.70
2023-03-20T18:09:13.554Z,7.80
2023-03-20T18:11:40.879Z,8.27
2023-03-20T18:14:08.677Z,16.03
2023-03-20T18:16:36.017Z,10.97
2023-03-20T18:19:03.808Z,14.50
2023-03-20T18:21:30.921Z,10.90
2023-03-20T18:23:57.998Z,9.60
2023-03-20T18:26:27.855Z,10.23
2023-03-20T18:28:56.462Z,10.90
2023-03-20T18:31:23.629Z,11.10
2023-03-20T18:33:54.686Z,10.20
2023-03-20T18:36:24.661Z,8.47
2023-03-20T18:38:52.308Z,8.30
2023-03-20T18:41:20.054Z,8.30
2023-03-20T18:43:47.271Z,8.63
2023-03-20T18:46:21.253Z,9.10
2023-03-20T18:48:52.029Z,8.63
2023-03-20T18:51:21.932Z,7.90
2023-03-20T18:53:49.283Z,11.53
2023-03-20T18:56:23.702Z,8.50
2023-03-20T18:58:52.466Z,10.80
2023-03-20T19:01:20.570Z,9.70
2023-03-20T19:03:48.415Z,9.27
2023-03-20T19:06:23.584Z,9.07
2023-03-20T19:08:52.140Z,9.80
2023-03-20T19:11:21.707Z,8.03
2023-03-20T19:13:53.764Z,10.63
2023-03-20T19:16:28.119Z,10.70
2023-03-20T19:18:59.801Z,12.27
2023-03-20T19:21:28.199Z,11.90
2023-03-20T19:24:04.979Z,13.10
2023-03-20T19:26:35.814Z,14.50
2023-03-20T19:29:09.078Z,14.10
2023-03-20T19:31:36.883Z,16.30
2023-03-20T19:34:03.898Z,17.00
2023-03-20T19:36:37.748Z,17.60
2023-03-20T19:39:08.620Z,16.23
2023-03-20T19:41:36.068Z,15.20
2023-03-20T19:44:03.121Z,16.20
2023-03-20T19:46:45.302Z,14.40
2023-03-20T19:49:19.559Z,14.60
2023-03-20T19:51:49.465Z,15.40
2023-03-20T19:54:17.828Z,14.10
2023-03-20T19:56:45.008Z,14.60
2023-03-20T19:59:16.101Z,13.40
2023-03-20T20:01:46.329Z,11.77
2023-03-20T20:04:14.959Z,12.73
2023-03-20T20:06:47.401Z,13.60
2023-03-20T20:09:15.358Z,13.70
2023-03-20T20:11:42.751Z,12.90
2023-03-20T20:14:14.496Z,12.23
2023-03-20T20:16:43.753Z,12.30
2023-03-20T20:19:16.608Z,12.13
2023-03-20T20:24:34.269Z,11.13
2023-03-20T20:27:16.910Z,12.00
2023-03-20T20:29:52.683Z,12.90
2023-03-20T20:32:24.662Z,10.57
2023-03-20T20:38:33.595Z,10.37
2023-03-20T20:40:32.455Z,10.93
2023-03-20T20:43:02.516Z,10.47
2023-03-20T20:45:34.871Z,10.83
2023-03-20T20:48:06.996Z,9.53
2023-03-20T20:50:36.438Z,10.30
2023-03-20T20:53:05.238Z,10.93
2023-03-20T20:55:32.292Z,10.60
2023-03-20T20:57:59.317Z,10.47
2023-03-20T21:00:45.316Z,11.07
2023-03-20T21:03:14.230Z,9.87
2023-03-20T21:05:43.474Z,10.63
2023-03-20T21:08:13.524Z,9.73
2023-03-20T21:10:40.488Z,10.30
2023-03-20T21:13:08.590Z,9.10
2023-03-20T21:15:36.074Z,10.83
2023-03-20T21:18:03.640Z,10.10
2023-03-20T21:20:32.352Z,11.40
2023-03-20T21:22:59.465Z,10.63
2023-03-20T21:25:39.743Z,11.03
2023-03-20T21:28:09.453Z,10.87
2023-03-20T21:30:43.223Z,8.13
2023-03-20T21:33:13.661Z,9.37
2023-03-20T21:35:41.520Z,8.57
2023-03-20T21:40:55.479Z,7.80
2023-03-20T21:43:22.459Z,7.60
2023-03-20T21:46:27.793Z,7.47
2023-03-20T22:02:35.320Z,7.10
2023-03-20T22:05:52.780Z,7.40
2023-03-20T22:08:38.109Z,6.67
2023-03-20T22:11:27.607Z,6.63
2023-03-20T22:17:17.564Z,7.37
2023-03-20T22:25:16.576Z,7.27
2023-03-20T22:28:03.768Z,6.93
2023-03-20T22:31:05.440Z,7.70
2023-03-20T22:33:55.508Z,7.30
2023-03-20T22:39:19.206Z,7.60
2023-03-20T22:42:13.413Z,7.63
2023-03-20T22:46:59.292Z,7.40
2023-03-20T22:49:26.233Z,7.53
2023-03-20T22:52:11.734Z,8.10
2023-03-20T22:54:41.918Z,7.20
2023-03-20T22:57:09.043Z,7.70
2023-03-20T22:59:36.730Z,7.37
2023-03-20T23:02:03.905Z,7.73
2023-03-20T23:04:31.080Z,7.67
2023-03-20T23:06:58.067Z,7.60
2023-03-20T23:09:25.147Z,6.67
2023-03-20T23:11:52.288Z,6.73
2023-03-20T23:14:22.167Z,7.27
2023-03-20T23:16:51.139Z,7.27
2023-03-20T23:19:18.251Z,7.90
2023-03-20T23:21:45.251Z,6.67
2023-03-20T23:24:12.451Z,6.23
2023-03-20T23:26:39.497Z,6.60
2023-03-20T23:29:06.616Z,6.80
2023-03-20T23:31:33.774Z,6.60
2023-03-20T23:34:00.771Z,6.20
2023-03-20T23:36:36.330Z,7.50
2023-03-20T23:39:10.759Z,6.77
2023-03-20T23:42:09.846Z,7.13
2023-03-20T23:44:26.429Z,7.23
2023-03-20T23:46:54.923Z,7.83
2023-03-20T23:49:22.011Z,6.57
2023-03-20T23:51:48.944Z,7.90
2023-03-20T23:54:16.461Z,7.30
2023-03-20T23:56:43.575Z,6.90
2023-03-20T23:59:20.956Z,6.83
